createdAt,value
2022-09-03T00:16:32.788Z,82.81
2022-09-03T00:17:32.711Z,83.09
2022-09-03T00:18:32.541Z,83.00
2022-09-03T00:19:33.886Z,83.19
2022-09-03T00:20:32.795Z,83.67
2022-09-03T00:25:32.724Z,84.34
2022-09-03T00:26:32.749Z,83.95
2022-09-03T00:27:32.779Z,84.34
2022-09-03T00:28:32.806Z,84.72
2022-09-03T00:29:32.835Z,85.21
2022-09-03T00:30:32.874Z,84.97
2022-09-03T00:31:33.061Z,85.25
2022-09-03T00:32:32.918Z,85.54
2022-09-03T00:33:32.948Z,85.16
2022-09-03T00:34:32.973Z,84.68
2022-09-03T00:35:33.004Z,84.49
2022-09-03T00:45:33.286Z,85.11
2022-09-03T00:46:33.557Z,85.64
2022-09-03T00:47:33.342Z,85.54
2022-09-03T00:48:33.567Z,85.93
2022-09-03T00:50:35.567Z,86.60
2022-09-03T01:04:33.817Z,89.43
2022-09-03T01:05:33.844Z,89.90
2022-09-03T01:06:33.871Z,90.00
2022-09-03T01:07:33.899Z,89.14
2022-09-03T01:08:33.926Z,89.90
2022-09-03T01:09:34.170Z,89.52
2022-09-03T01:10:33.998Z,90.44
2022-09-03T01:16:34.151Z,91.58
2022-09-03T01:17:34.177Z,91.77
2022-09-03T01:18:34.206Z,92.25
2022-09-03T01:19:34.233Z,91.11
2022-09-03T01:20:34.262Z,91.97
2022-09-03T01:21:34.288Z,92.73
2022-09-03T01:22:34.320Z,92.73
2022-09-03T01:23:34.345Z,92.25
2022-09-03T01:24:34.576Z,93.30
2022-09-03T01:25:34.401Z,93.59
2022-09-03T01:26:34.631Z,93.30
2022-09-03T01:27:34.457Z,91.68
2022-09-03T01:28:34.487Z,91.11
2022-09-03T01:29:34.712Z,92.06
2022-09-03T01:30:34.542Z,92.49
2022-09-03T01:31:34.569Z,92.73
2022-09-03T01:32:34.598Z,92.49
2022-09-03T01:33:34.622Z,92.78
2022-09-03T01:34:34.653Z,92.97
2022-09-03T01:35:34.679Z,93.93
2022-09-03T01:36:34.711Z,93.55
2022-09-03T01:37:34.735Z,93.35
2022-09-03T01:38:34.765Z,93.26
2022-09-03T01:39:34.857Z,93.64
2022-09-03T01:40:34.818Z,93.07
2022-09-03T01:41:35.061Z,93.35
2022-09-03T01:42:36.506Z,93.64
2022-09-03T01:48:35.042Z,94.60
2022-09-03T01:49:35.073Z,95.17
2022-09-03T01:50:35.095Z,95.36
2022-09-03T01:51:38.564Z,95.27
2022-09-03T01:52:35.364Z,96.13
2022-09-03T01:55:35.229Z,96.13
2022-09-03T01:56:35.262Z,96.13
2022-09-03T01:57:37.117Z,95.75
2022-09-03T01:58:36.123Z,95.84
2022-09-03T02:00:27.914Z,96.08
2022-09-03T02:01:28.901Z,95.98
2022-09-03T02:02:28.020Z,96.03
2022-09-03T02:03:27.996Z,96.42
2022-09-03T02:04:28.023Z,95.75
2022-09-03T02:05:28.051Z,95.98
2022-09-03T02:06:28.073Z,96.08
2022-09-03T02:07:28.106Z,96.08
2022-09-03T02:08:28.131Z,96.94
2022-09-03T02:09:32.707Z,96.47
2022-09-03T02:10:28.191Z,97.33
2022-09-03T02:11:28.216Z,96.47
2022-09-03T02:12:28.242Z,96.08
2022-09-03T02:13:28.272Z,96.56
2022-09-03T02:14:28.299Z,96.66
2022-09-03T02:15:28.364Z,95.98
2022-09-03T02:16:28.350Z,95.89
2022-09-03T02:17:28.380Z,96.94
2022-09-03T02:18:28.408Z,97.13
2022-09-03T02:19:28.639Z,96.27
2022-09-03T02:20:28.666Z,96.94
2022-09-03T02:21:28.493Z,97.13
2022-09-03T02:22:28.519Z,96.27
2022-09-03T02:23:28.692Z,96.66
2022-09-03T02:24:28.574Z,96.66
2022-09-03T02:25:28.603Z,97.71
2022-09-03T02:26:28.627Z,97.04
2022-09-03T02:27:31.280Z,97.90
2022-09-03T02:28:28.928Z,97.99
2022-09-03T02:29:28.912Z,97.80
2022-09-03T02:32:29.614Z,99.04
2022-09-03T02:34:28.863Z,97.80
2022-09-03T02:36:28.901Z,97.99
2022-09-03T02:37:28.932Z,98.75
2022-09-03T02:38:28.957Z,98.75
2022-09-03T02:39:29.281Z,99.43
2022-09-03T02:40:29.214Z,98.57
2022-09-03T02:41:29.042Z,98.28
2022-09-03T02:42:29.217Z,98.95
2022-09-03T02:43:29.097Z,99.14
2022-09-03T02:44:29.123Z,98.95
2022-09-03T02:45:29.153Z,99.43
2022-09-03T02:46:29.271Z,99.24
2022-09-03T02:47:29.205Z,98.95
2022-09-03T02:48:30.149Z,99.14
2022-09-03T02:49:29.276Z,99.04
2022-09-03T02:50:29.706Z,99.43
2022-09-03T02:52:29.341Z,99.14
2022-09-03T02:53:29.367Z,99.81
2022-09-03T02:54:29.814Z,99.81
2022-09-03T02:55:29.637Z,99.90
2022-09-03T02:56:29.775Z,99.52
2022-09-03T03:01:29.656Z,99.90
2022-09-03T03:02:29.648Z,99.99
2022-09-03T03:03:29.644Z,99.85
2022-09-03T03:04:29.670Z,99.71
2022-09-03T03:05:29.697Z,99.99
2022-09-03T03:06:29.726Z,99.99
2022-09-03T03:11:38.948Z,99.99
2022-09-03T03:12:38.977Z,99.99
2022-09-03T03:13:39.002Z,99.99
2022-09-03T03:14:39.031Z,99.99
2022-09-03T03:15:39.058Z,99.99
2022-09-03T03:16:39.147Z,99.99
2022-09-03T03:17:39.112Z,99.99
2022-09-03T03:18:39.140Z,99.99
2022-09-03T03:19:39.165Z,99.99
2022-09-03T03:20:39.195Z,99.99
2022-09-03T03:21:41.844Z,99.99
2022-09-03T03:22:39.248Z,99.99
2022-09-03T03:23:39.276Z,99.99
2022-09-03T03:24:39.302Z,99.99
2022-09-03T03:25:39.328Z,99.99
2022-09-03T03:26:39.356Z,99.71
2022-09-03T03:27:39.384Z,99.99
2022-09-03T03:28:39.412Z,99.43
2022-09-03T03:29:39.439Z,99.62
2022-09-03T03:30:39.518Z,99.43
2022-09-03T03:31:39.495Z,99.62
2022-09-03T03:32:39.523Z,99.90
2022-09-03T03:33:39.547Z,99.33
2022-09-03T03:34:39.577Z,99.52
2022-09-03T03:35:39.608Z,99.33
2022-09-03T03:36:39.640Z,99.43
2022-09-03T03:37:39.677Z,99.62
2022-09-03T03:38:39.708Z,99.71
2022-09-03T03:39:39.752Z,99.33
2022-09-03T03:40:39.744Z,99.52
2022-09-03T03:41:39.767Z,99.90
2022-09-03T03:42:39.794Z,99.71
2022-09-03T03:43:39.821Z,99.71
2022-09-03T03:44:39.851Z,99.99
2022-09-03T03:45:39.907Z,99.99
2022-09-03T03:46:39.908Z,99.99
2022-09-03T03:47:39.931Z,99.99
2022-09-03T03:48:39.957Z,99.99
2022-09-03T03:49:39.983Z,99.99
2022-09-03T03:50:40.010Z,99.99
2022-09-03T03:51:40.036Z,99.81
2022-09-03T03:52:40.069Z,99.99
2022-09-03T03:53:40.090Z,99.99
2022-09-03T03:54:40.120Z,99.99
2022-09-03T03:55:40.146Z,99.99
2022-09-03T03:56:40.174Z,99.99
2022-09-03T03:57:40.206Z,99.99
2022-09-03T03:58:40.231Z,99.81
2022-09-03T03:59:40.254Z,99.99
2022-09-03T04:00:40.283Z,99.99
2022-09-03T04:01:40.433Z,99.99
2022-09-03T04:02:40.445Z,99.99
2022-09-03T04:03:40.364Z,99.99
2022-09-03T04:04:43.015Z,99.99
2022-09-03T04:05:43.821Z,99.99
2022-09-03T04:06:40.447Z,99.99
2022-09-03T04:07:40.473Z,99.99
2022-09-03T04:08:40.500Z,99.99
2022-09-03T04:09:40.526Z,99.99
2022-09-03T04:10:40.562Z,99.99
2022-09-03T04:11:40.580Z,99.99
2022-09-03T04:12:40.622Z,99.99
2022-09-03T04:13:40.634Z,99.99
2022-09-03T04:14:40.663Z,99.99
2022-09-03T04:15:40.690Z,99.99
2022-09-03T04:16:40.856Z,99.99
2022-09-03T04:19:41.018Z,99.99
2022-09-03T04:20:41.634Z,99.99
2022-09-03T04:22:41.389Z,99.99
2022-09-03T04:28:41.771Z,99.99
2022-09-03T04:30:41.324Z,99.62
2022-09-03T04:31:41.345Z,99.99
2022-09-03T04:33:41.198Z,99.99
2022-09-03T04:34:41.629Z,99.62
2022-09-03T04:35:41.250Z,99.96
2022-09-03T04:37:41.291Z,99.14
2022-09-03T05:23:45.200Z,93.30
2022-09-03T05:53:34.275Z,86.54
2022-09-03T05:54:33.998Z,86.68
2022-09-03T05:55:34.024Z,84.89
2022-09-03T05:56:34.969Z,84.70
2022-09-03T05:57:34.082Z,83.49
2022-09-03T05:58:34.318Z,82.15
2022-09-03T06:00:34.168Z,82.53
2022-09-03T06:01:34.599Z,82.82
2022-09-03T06:02:34.893Z,82.78
2022-09-03T06:04:34.279Z,83.16
2022-09-03T06:12:37.725Z,84.41
2022-09-03T06:13:34.744Z,83.84
2022-09-03T06:17:34.847Z,84.03
2022-09-03T06:18:34.680Z,83.84
2022-09-03T06:19:34.714Z,84.22
2022-09-03T06:21:34.976Z,84.60
2022-09-03T06:22:34.784Z,84.41
2022-09-03T06:23:34.825Z,84.03
2022-09-03T06:25:34.884Z,84.22
2022-09-03T06:27:34.927Z,83.74
2022-09-03T06:28:34.958Z,83.54
2022-09-03T06:30:35.028Z,83.01
2022-09-03T06:34:06.157Z,83.87
2022-09-03T06:35:06.182Z,83.40
2022-09-03T06:36:08.810Z,83.78
2022-09-03T06:37:06.035Z,83.87
2022-09-03T06:38:06.262Z,83.78
2022-09-03T06:39:06.499Z,83.40
2022-09-03T06:41:06.144Z,83.30
2022-09-03T06:43:06.613Z,83.11
2022-09-03T06:44:06.443Z,82.15
2022-09-03T06:45:08.078Z,83.01
2022-09-03T06:47:06.321Z,82.15
2022-09-03T06:59:06.673Z,80.40
2022-09-03T07:00:06.695Z,80.60
2022-09-03T07:01:07.600Z,80.40
2022-09-03T07:02:06.859Z,80.50
2022-09-03T07:03:06.787Z,79.86
2022-09-03T07:04:07.527Z,79.77
2022-09-03T07:06:06.878Z,79.28
2022-09-03T07:07:07.097Z,78.33
2022-09-03T07:08:06.933Z,78.46
2022-09-03T07:09:07.478Z,78.08
2022-09-03T07:10:07.704Z,78.17
2022-09-03T07:11:07.026Z,77.98
2022-09-03T07:12:07.766Z,77.98
2022-09-03T07:15:07.128Z,77.06
2022-09-03T07:16:07.572Z,76.32
2022-09-03T07:19:07.757Z,75.93
2022-09-03T07:26:07.679Z,76.18
2022-09-03T07:29:07.565Z,76.38
2022-09-03T07:30:07.599Z,76.57
2022-09-03T07:31:07.621Z,76.48
2022-09-03T07:32:07.692Z,76.96
2022-09-03T07:33:07.691Z,76.86
2022-09-03T07:34:10.175Z,76.96
2022-09-03T07:36:07.780Z,76.42
2022-09-03T07:37:07.812Z,76.03
2022-09-03T07:38:08.146Z,76.51
2022-09-03T07:39:07.872Z,77.09
2022-09-03T07:40:07.985Z,76.61
2022-09-03T07:41:07.934Z,75.84
2022-09-03T07:42:07.950Z,76.51
2022-09-03T07:44:09.138Z,76.51
2022-09-03T07:45:08.054Z,76.23
2022-09-03T07:47:08.117Z,76.51
2022-09-03T07:48:08.134Z,76.13
2022-09-03T07:49:08.167Z,75.65
2022-09-03T07:50:08.206Z,76.23
2022-09-03T07:51:08.233Z,76.42
2022-09-03T07:53:08.300Z,75.10
2022-09-03T07:54:08.636Z,74.43
2022-09-03T07:55:08.363Z,74.52
2022-09-03T07:56:08.594Z,73.75
2022-09-03T07:57:08.422Z,74.18
2022-09-03T07:58:08.451Z,73.60
2022-09-03T07:59:08.476Z,72.28
2022-09-03T08:01:46.185Z,71.64
2022-09-03T08:02:46.614Z,71.26
2022-09-03T08:03:47.178Z,71.00
2022-09-03T08:04:46.286Z,70.52
2022-09-03T08:05:46.588Z,69.68
2022-09-03T08:06:46.551Z,69.40
2022-09-03T08:07:46.378Z,69.10
2022-09-03T08:08:46.418Z,68.72
2022-09-03T08:10:46.477Z,68.88
2022-09-03T08:11:46.510Z,69.46
2022-09-03T08:12:47.252Z,70.58
2022-09-03T09:28:52.238Z,99.99
2022-09-03T09:29:52.396Z,99.99
2022-09-03T09:30:52.444Z,99.99
2022-09-03T09:31:52.325Z,99.99
2022-09-03T09:32:52.363Z,99.99
2022-09-03T09:33:52.384Z,99.99
2022-09-03T09:34:52.810Z,99.99
2022-09-03T09:35:52.442Z,99.99
2022-09-03T09:36:52.471Z,99.99
2022-09-03T09:37:52.500Z,99.99
2022-09-03T09:38:52.847Z,99.99
2022-09-03T09:39:52.918Z,99.99
2022-09-03T09:40:52.588Z,99.99
2022-09-03T09:41:52.617Z,99.99
2022-09-03T09:42:52.644Z,99.99
2022-09-03T09:43:52.676Z,99.99
2022-09-03T09:44:52.705Z,99.99
2022-09-03T09:45:52.748Z,99.99
2022-09-03T09:46:54.950Z,99.99
2022-09-03T09:47:53.113Z,99.99
2022-09-03T09:48:53.035Z,99.99
2022-09-03T09:49:52.851Z,99.99
2022-09-03T09:50:52.889Z,99.99
2022-09-03T09:51:52.923Z,99.99
2022-09-03T09:52:57.295Z,99.99
2022-09-03T09:53:52.968Z,99.99
2022-09-03T09:54:53.007Z,99.99
2022-09-03T09:55:53.046Z,99.99
2022-09-03T09:56:53.069Z,99.99
2022-09-03T09:57:53.103Z,99.99
2022-09-03T09:58:53.126Z,99.99
2022-09-03T10:00:53.190Z,99.99
2022-09-03T10:01:53.293Z,99.99
2022-09-03T10:02:53.306Z,99.99
2022-09-03T10:03:53.263Z,99.99
2022-09-03T10:04:53.304Z,99.99
2022-09-03T10:05:53.334Z,99.99
2022-09-03T10:07:53.393Z,99.99
2022-09-03T10:08:53.424Z,99.99
2022-09-03T10:10:53.758Z,99.99
2022-09-03T10:11:53.918Z,99.99
2022-09-03T10:12:53.548Z,99.99
2022-09-03T10:13:53.574Z,99.99
2022-09-03T10:14:53.607Z,99.99
2022-09-03T10:17:53.895Z,99.88
2022-09-03T10:18:53.722Z,98.92
2022-09-03T10:20:54.091Z,96.17
2022-09-03T10:21:53.812Z,94.77
2022-09-03T10:22:57.079Z,94.87
2022-09-03T10:23:53.872Z,93.37
2022-09-03T10:24:53.903Z,91.77
2022-09-03T10:25:53.937Z,91.15
2022-09-03T10:26:53.965Z,89.07
2022-09-03T10:27:54.000Z,88.69
2022-09-03T10:28:56.777Z,91.20
2022-09-03T10:29:54.057Z,92.46
2022-09-03T10:30:54.203Z,89.75
2022-09-03T10:31:54.125Z,88.21
2022-09-03T10:32:54.148Z,88.79
2022-09-03T10:34:54.211Z,88.93
2022-09-03T10:35:54.238Z,88.45
2022-09-03T10:36:54.578Z,88.73
2022-09-03T10:37:54.705Z,87.71
2022-09-03T10:38:54.335Z,87.04
2022-09-03T10:39:54.383Z,85.98
2022-09-03T10:40:54.586Z,85.98
2022-09-03T10:41:54.421Z,84.82
2022-09-03T10:42:54.445Z,85.21
2022-09-03T10:43:54.489Z,85.63
2022-09-03T10:44:54.725Z,84.57
2022-09-03T10:45:54.610Z,84.47
2022-09-03T10:46:54.583Z,84.77
2022-09-03T10:47:54.599Z,84.42
2022-09-03T10:48:54.646Z,83.22
2022-09-03T10:49:54.675Z,83.41
2022-09-03T10:51:55.046Z,83.74
2022-09-03T10:52:55.077Z,83.06
2022-09-03T10:53:54.804Z,82.33
2022-09-03T10:54:54.829Z,81.60
2022-09-03T10:55:54.866Z,81.75
2022-09-03T10:56:54.896Z,81.65
2022-09-03T10:57:54.915Z,81.23
2022-09-03T10:58:54.956Z,82.10
2022-09-03T10:59:55.194Z,82.29
2022-09-03T11:00:55.009Z,81.27
2022-09-03T11:01:55.134Z,81.02
2022-09-03T11:02:55.184Z,78.83
2022-09-03T11:03:55.107Z,78.61
2022-09-03T11:04:55.147Z,77.75
2022-09-03T11:05:55.174Z,77.36
2022-09-03T11:06:55.199Z,77.42
2022-09-03T11:07:55.232Z,77.80
2022-09-03T11:08:55.871Z,78.34
2022-09-03T11:09:56.710Z,78.34
2022-09-03T11:10:55.337Z,78.58
2022-09-03T11:11:55.576Z,78.03
2022-09-03T11:12:56.411Z,77.94
2022-09-03T11:13:55.889Z,77.45
2022-09-03T11:14:55.759Z,77.22
2022-09-03T11:15:56.732Z,78.34
2022-09-03T11:16:55.531Z,78.44
2022-09-03T11:17:56.225Z,79.02
2022-09-03T11:18:55.583Z,78.44
2022-09-03T11:19:55.618Z,78.31
2022-09-03T11:20:55.700Z,78.79
2022-09-03T11:21:55.682Z,78.99
2022-09-03T11:22:55.715Z,80.44
2022-09-03T11:23:55.746Z,80.40
2022-09-03T11:24:55.778Z,80.44
2022-09-03T11:25:55.809Z,80.34
2022-09-03T11:26:55.853Z,80.63
2022-09-03T11:27:56.730Z,79.17
2022-09-03T11:28:55.917Z,80.15
2022-09-03T11:29:55.951Z,79.70
2022-09-03T11:30:56.065Z,79.50
2022-09-03T11:32:56.247Z,78.64
2022-09-03T11:34:56.096Z,78.99
2022-09-03T11:35:56.345Z,78.69
2022-09-03T11:37:56.205Z,79.72
2022-09-03T11:38:57.250Z,80.98
2022-09-03T11:39:56.619Z,81.56
2022-09-03T11:40:56.307Z,81.52
2022-09-03T11:42:56.567Z,81.32
2022-09-03T11:43:58.269Z,81.37
2022-09-03T11:44:56.831Z,81.56
2022-09-03T11:47:56.525Z,80.05
2022-09-03T11:48:56.544Z,79.85
2022-09-03T11:49:56.589Z,80.15
2022-09-03T11:50:56.623Z,81.02
2022-09-03T11:51:56.653Z,80.54
2022-09-03T11:52:56.681Z,80.34
2022-09-03T11:53:56.703Z,81.12
2022-09-03T11:54:56.744Z,80.82
2022-09-03T11:55:57.186Z,80.63
2022-09-03T11:56:56.811Z,80.44
2022-09-03T11:57:57.045Z,80.44
2022-09-03T11:59:57.308Z,80.59
2022-09-03T12:00:56.942Z,80.98
2022-09-03T12:01:57.171Z,81.32
2022-09-03T12:02:59.190Z,82.10
2022-09-03T12:03:57.032Z,82.39
2022-09-03T12:05:57.098Z,82.10
2022-09-03T12:06:57.128Z,82.54
2022-09-03T12:07:57.563Z,82.87
2022-09-03T12:08:57.189Z,82.93
2022-09-03T12:09:57.221Z,83.26
2022-09-03T12:10:57.455Z,83.45
2022-09-03T12:11:57.488Z,81.81
2022-09-03T12:12:57.517Z,81.46
2022-09-03T12:13:57.345Z,81.27
2022-09-03T12:15:57.467Z,81.75
2022-09-03T12:16:57.439Z,81.95
2022-09-03T12:17:57.780Z,81.85
2022-09-03T12:18:57.502Z,81.56
2022-09-03T12:19:57.521Z,81.21
2022-09-03T12:21:57.597Z,81.60
2022-09-03T12:22:57.626Z,81.12
2022-09-03T12:23:58.048Z,80.92
2022-09-03T12:24:57.688Z,80.82
2022-09-03T12:25:57.924Z,80.92
2022-09-03T12:26:57.737Z,80.73
2022-09-03T12:29:57.851Z,79.22
2022-09-03T12:30:57.915Z,79.22
2022-09-03T12:31:58.110Z,79.41
2022-09-03T12:32:57.935Z,79.41
2022-09-03T12:33:57.969Z,78.38
2022-09-03T12:35:58.900Z,78.44
2022-09-03T12:36:58.268Z,78.38
2022-09-03T12:38:08.436Z,78.25
2022-09-03T12:39:11.497Z,78.25
2022-09-03T12:40:07.709Z,78.44
2022-09-03T12:41:58.224Z,78.00
2022-09-03T12:43:37.217Z,78.00
2022-09-03T12:46:13.725Z,77.75
2022-09-03T12:47:58.458Z,77.55
2022-09-03T12:49:58.471Z,77.61
2022-09-03T12:50:58.712Z,78.52
2022-09-03T12:52:58.766Z,77.75
2022-09-03T12:53:59.210Z,77.45
2022-09-03T12:54:58.830Z,77.45
2022-09-03T12:55:59.767Z,77.32
2022-09-03T12:58:58.955Z,77.45
2022-09-03T12:59:58.792Z,78.33
2022-09-03T13:01:59.045Z,77.45
2022-09-03T13:02:59.085Z,77.03
2022-09-03T13:03:58.913Z,77.90
2022-09-03T13:05:59.692Z,77.65
2022-09-03T13:07:59.241Z,78.03
2022-09-03T13:11:59.182Z,78.48
2022-09-03T13:13:11.934Z,78.19
2022-09-03T13:15:59.289Z,79.45
2022-09-03T13:17:00.241Z,79.16
2022-09-03T13:19:59.622Z,78.87
2022-09-03T13:20:59.852Z,79.45
2022-09-03T13:21:59.684Z,80.52
2022-09-03T13:22:59.710Z,79.74
2022-09-03T13:23:59.546Z,80.32
2022-09-03T13:26:03.994Z,79.84
2022-09-03T13:26:59.839Z,79.93
2022-09-03T13:27:59.671Z,79.88
2022-09-03T13:29:59.934Z,80.07
2022-09-03T13:30:59.827Z,79.84
2022-09-03T13:32:05.358Z,79.68
2022-09-03T13:33:00.439Z,80.07
2022-09-03T13:34:00.370Z,79.68
2022-09-03T13:35:59.922Z,79.49
2022-09-03T13:36:59.952Z,79.20
2022-09-03T13:39:00.218Z,80.17
2022-09-03T13:40:00.408Z,80.36
2022-09-03T13:41:00.082Z,80.17
2022-09-03T13:46:00.588Z,79.49
2022-09-03T13:48:00.503Z,80.26
2022-09-03T13:49:01.050Z,80.46
2022-09-03T13:50:00.770Z,80.26
2022-09-03T13:51:00.602Z,80.46
2022-09-03T13:52:00.740Z,81.23
2022-09-03T13:53:00.457Z,81.04
2022-09-03T13:55:00.728Z,80.21
2022-09-03T13:56:00.555Z,80.69
2022-09-03T13:57:00.592Z,80.79
2022-09-03T13:58:02.066Z,80.21
2022-09-03T13:59:00.854Z,79.53
2022-09-03T14:00:01.087Z,79.58
2022-09-03T14:01:01.161Z,79.82
2022-09-03T14:02:01.107Z,80.60
2022-09-03T14:03:01.235Z,79.63
2022-09-03T14:04:00.810Z,79.91
2022-09-03T14:06:01.082Z,80.40
2022-09-03T14:07:01.110Z,80.21
2022-09-03T14:08:00.942Z,80.01
2022-09-03T14:10:01.406Z,79.43
2022-09-03T14:11:01.036Z,79.43
2022-09-03T14:14:01.127Z,78.94
2022-09-03T14:16:01.399Z,80.21
2022-09-03T14:17:01.226Z,79.82
2022-09-03T14:18:01.260Z,79.43
2022-09-03T14:19:01.287Z,79.63
2022-09-03T14:21:01.353Z,79.63
2022-09-03T14:22:01.397Z,79.24
2022-09-03T14:23:01.617Z,80.01
2022-09-03T14:24:01.452Z,79.24
2022-09-03T14:25:01.482Z,79.43
2022-09-03T14:30:02.247Z,79.43
2022-09-03T14:31:01.676Z,79.04
2022-09-03T14:32:01.816Z,78.94
2022-09-03T14:33:02.141Z,79.04
2022-09-03T14:34:02.173Z,79.14
2022-09-03T14:38:02.099Z,80.01
2022-09-03T14:39:01.927Z,79.63
2022-09-03T14:42:02.027Z,79.18
2022-09-03T14:45:02.125Z,78.79
2022-09-03T14:46:05.719Z,78.89
2022-09-03T14:47:02.192Z,78.59
2022-09-03T14:50:02.585Z,78.40
2022-09-03T14:52:02.344Z,78.59
2022-09-03T14:55:03.157Z,78.66
2022-09-03T14:56:02.473Z,78.66
2022-09-03T14:57:02.819Z,78.85
2022-09-03T14:58:03.146Z,78.85
2022-09-03T14:59:03.689Z,78.94
2022-09-03T15:00:02.646Z,79.72
2022-09-03T15:01:02.792Z,79.72
2022-09-03T15:06:03.403Z,80.46
2022-09-03T15:07:03.237Z,80.36
2022-09-03T15:09:02.893Z,80.65
2022-09-03T15:11:03.667Z,80.85
2022-09-03T15:13:03.531Z,81.23
2022-09-03T15:15:03.087Z,81.04
2022-09-03T15:16:03.599Z,81.23
2022-09-03T15:17:03.962Z,81.52
2022-09-03T15:23:03.752Z,81.23
2022-09-03T15:26:03.639Z,81.91
2022-09-03T15:29:04.048Z,81.82
2022-09-03T15:32:03.844Z,82.20
2022-09-03T15:33:05.280Z,82.40
2022-09-03T15:34:04.608Z,81.72
2022-09-03T15:35:04.240Z,81.91
2022-09-03T15:36:03.756Z,81.52
2022-09-03T15:39:05.470Z,81.13
2022-09-03T15:42:04.153Z,80.88
2022-09-03T15:48:04.354Z,82.01
2022-09-03T15:53:05.317Z,82.10
2022-09-03T15:55:04.566Z,81.95
2022-09-03T15:56:04.806Z,82.10
2022-09-03T15:59:04.695Z,82.59
2022-09-03T16:00:04.731Z,82.59
2022-09-03T16:02:05.196Z,81.62
2022-09-03T16:05:04.888Z,82.59
2022-09-03T16:12:05.115Z,83.65
2022-09-03T16:13:04.946Z,83.95
2022-09-03T16:14:04.971Z,82.94
2022-09-03T16:15:05.008Z,82.50
2022-09-03T16:16:05.325Z,82.55
2022-09-03T16:17:05.282Z,82.45
2022-09-03T16:18:05.105Z,82.55
2022-09-03T16:23:05.774Z,83.38
2022-09-03T16:25:05.326Z,83.48
2022-09-03T16:26:05.362Z,83.77
2022-09-03T16:27:05.591Z,83.96
2022-09-03T16:28:11.519Z,84.45
2022-09-03T16:30:05.994Z,84.93
2022-09-03T16:32:06.158Z,86.19
2022-09-03T16:33:05.888Z,86.77
2022-09-03T16:35:05.633Z,87.74
2022-09-03T16:36:05.665Z,87.70
2022-09-03T16:37:05.697Z,88.09
2022-09-03T16:38:05.728Z,89.05
2022-09-03T16:39:05.759Z,89.63
2022-09-03T16:40:05.842Z,89.92
2022-09-03T16:41:05.823Z,90.60
2022-09-03T16:42:05.853Z,90.41
2022-09-03T16:43:23.507Z,91.56
2022-09-03T16:49:06.088Z,92.54
2022-09-03T16:50:06.323Z,93.26
2022-09-03T16:51:06.845Z,92.78
2022-09-03T16:52:06.790Z,92.10
2022-09-03T16:53:08.084Z,91.42
2022-09-03T16:54:06.534Z,91.82
2022-09-03T17:02:23.777Z,92.83
2022-09-03T17:03:06.681Z,93.51
2022-09-03T17:04:06.564Z,94.28
2022-09-03T17:05:07.304Z,95.01
2022-09-03T17:08:06.999Z,99.07
2022-09-03T17:09:07.835Z,99.99
2022-09-03T17:13:08.162Z,99.99
2022-09-03T17:14:07.384Z,99.99
2022-09-03T17:15:07.509Z,99.99
2022-09-03T17:17:06.972Z,99.99
2022-09-03T17:19:07.032Z,99.99
2022-09-03T17:20:07.268Z,99.99
2022-09-03T17:26:07.249Z,99.99
2022-09-03T17:27:07.265Z,99.99
2022-09-03T17:28:07.316Z,99.99
2022-09-03T17:29:07.851Z,99.99
2022-09-03T17:30:07.370Z,99.99
2022-09-03T17:31:07.417Z,99.99
2022-09-03T17:32:07.437Z,99.99
2022-09-03T17:33:07.666Z,99.99
2022-09-03T17:36:08.255Z,99.99
2022-09-03T17:37:07.589Z,99.99
2022-09-03T17:38:07.621Z,99.99
2022-09-03T17:39:07.955Z,99.99
2022-09-03T17:40:07.972Z,99.99
2022-09-03T17:41:08.333Z,99.99
2022-09-03T17:44:07.790Z,99.99
2022-09-03T17:45:07.818Z,99.99
2022-09-03T17:46:07.945Z,99.99
2022-09-03T17:47:07.877Z,99.99
2022-09-03T17:48:07.908Z,99.99
2022-09-03T17:50:07.965Z,99.99
2022-09-03T17:51:07.999Z,99.99
2022-09-03T17:52:08.026Z,99.99
2022-09-03T17:53:08.059Z,99.99
2022-09-03T17:54:08.095Z,99.99
2022-09-03T17:55:08.132Z,99.99
2022-09-03T17:56:08.147Z,99.99
2022-09-03T17:57:08.186Z,99.99
2022-09-03T17:58:08.221Z,99.99
2022-09-03T17:59:08.238Z,99.99
2022-09-03T18:00:08.269Z,99.99
2022-09-03T18:01:08.299Z,99.99
2022-09-03T18:02:08.349Z,99.99
2022-09-03T18:03:08.357Z,99.99
2022-09-03T18:04:08.403Z,99.99
2022-09-03T18:08:14.398Z,99.99
2022-09-03T18:09:14.431Z,99.99
2022-09-03T18:10:14.454Z,99.99
2022-09-03T18:11:14.689Z,99.99
2022-09-03T18:12:14.716Z,99.99
2022-09-03T18:13:14.750Z,99.99
2022-09-03T18:14:15.816Z,99.99
2022-09-03T18:18:17.909Z,99.99
2022-09-03T18:19:14.708Z,99.99
2022-09-03T18:20:14.738Z,99.99
2022-09-03T18:21:24.317Z,99.99
2022-09-03T18:22:14.808Z,99.99
2022-09-03T18:23:14.861Z,99.99
2022-09-03T18:25:15.208Z,99.99
2022-09-03T18:29:15.527Z,99.99
2022-09-03T18:30:15.249Z,99.99
2022-09-03T18:35:15.201Z,99.99
2022-09-03T18:39:15.304Z,99.99
2022-09-03T18:40:15.330Z,99.99
2022-09-03T18:41:15.371Z,99.99
2022-09-03T18:42:15.401Z,99.99
2022-09-03T18:43:15.428Z,99.99
2022-09-03T18:44:15.462Z,99.99
2022-09-03T18:45:21.858Z,99.99
2022-09-03T18:47:00.340Z,99.99
2022-09-03T18:48:20.232Z,99.99
2022-09-03T18:49:15.917Z,99.99
2022-09-03T18:50:16.035Z,99.99
2022-09-03T18:53:17.429Z,99.99
2022-09-03T18:56:16.423Z,99.99
2022-09-03T18:58:16.670Z,99.99
2022-09-03T18:59:15.905Z,99.99
2022-09-03T19:00:16.127Z,99.99
2022-09-03T19:01:15.992Z,99.99
2022-09-03T19:02:16.291Z,99.99
2022-09-03T19:04:16.255Z,99.99
2022-09-03T19:05:16.074Z,99.99
2022-09-03T19:07:16.119Z,99.99
2022-09-03T19:08:16.159Z,99.99
2022-09-03T19:10:16.831Z,99.99
2022-09-03T19:11:16.253Z,99.99
2022-09-03T19:12:16.993Z,99.99
2022-09-03T19:13:16.356Z,99.99
2022-09-03T19:14:16.337Z,99.99
2022-09-03T19:15:16.365Z,99.99
2022-09-03T19:29:17.590Z,99.99
2022-09-03T19:52:18.255Z,99.99
2022-09-03T19:54:17.710Z,99.99
2022-09-03T20:12:19.535Z,99.99
2022-09-03T20:30:18.537Z,99.99
2022-09-03T20:31:18.585Z,99.99
2022-09-03T20:32:18.605Z,99.99
2022-09-03T20:33:19.110Z,99.99
2022-09-03T20:34:18.665Z,99.99
2022-09-03T20:35:18.896Z,99.99
2022-09-03T20:36:18.726Z,99.99
2022-09-03T20:37:18.753Z,99.99
2022-09-03T20:38:18.776Z,99.99
2022-09-03T20:39:18.878Z,99.99
2022-09-03T20:40:19.039Z,99.99
2022-09-03T20:41:19.070Z,99.99
2022-09-03T20:43:20.040Z,99.99
2022-09-03T20:44:19.360Z,99.99
2022-09-03T20:46:20.063Z,99.99
2022-09-03T20:47:19.043Z,99.99
2022-09-03T20:49:19.406Z,99.99
2022-09-03T20:50:20.048Z,99.99
2022-09-03T20:51:19.558Z,99.99
2022-09-03T20:54:19.441Z,99.99
2022-09-03T20:57:19.530Z,99.99
2022-09-03T21:01:20.087Z,99.99
2022-09-03T21:04:19.530Z,99.99
2022-09-03T21:05:19.558Z,99.99
2022-09-03T21:06:20.327Z,99.99
2022-09-03T21:07:19.830Z,99.99
2022-09-03T21:10:19.911Z,99.99
2022-09-03T21:11:19.733Z,99.99
2022-09-03T21:12:19.968Z,99.99
2022-09-03T21:14:20.020Z,99.99
2022-09-03T21:16:21.858Z,99.99
2022-09-03T21:17:20.045Z,99.99
2022-09-03T21:18:19.950Z,99.99
2022-09-03T21:20:20.804Z,99.99
2022-09-03T21:22:20.049Z,99.99
2022-09-03T21:24:20.096Z,99.99
2022-09-03T21:25:20.122Z,99.99
2022-09-03T21:26:20.153Z,99.99
2022-09-03T21:28:32.798Z,99.99
2022-09-03T21:29:32.830Z,99.99
2022-09-03T21:30:32.894Z,99.99
2022-09-03T21:31:32.886Z,99.99
2022-09-03T21:32:32.914Z,99.99
2022-09-03T21:33:32.958Z,99.99
2022-09-03T21:34:32.971Z,99.99
2022-09-03T21:35:33.000Z,99.99
2022-09-03T21:36:33.029Z,99.99
2022-09-03T21:37:33.059Z,99.99
2022-09-03T21:38:33.085Z,99.99
2022-09-03T21:39:33.159Z,99.99
2022-09-03T21:40:33.142Z,99.99
2022-09-03T21:41:33.174Z,99.99
2022-09-03T21:42:33.403Z,99.99
2022-09-03T21:43:33.248Z,99.99
2022-09-03T21:44:33.261Z,99.99
2022-09-03T21:45:33.303Z,99.99
2022-09-03T21:46:33.316Z,99.99
2022-09-03T21:47:33.347Z,99.99
2022-09-03T21:48:33.376Z,99.99
2022-09-03T21:49:33.407Z,99.99
2022-09-03T21:50:33.444Z,99.99
2022-09-03T21:51:33.463Z,99.99
2022-09-03T21:52:33.489Z,99.99
2022-09-03T21:53:33.522Z,99.99
2022-09-03T21:54:33.561Z,99.99
2022-09-03T21:55:33.583Z,99.99
2022-09-03T21:56:33.607Z,99.99
2022-09-03T21:57:33.735Z,99.99
2022-09-03T21:58:33.661Z,99.99
2022-09-03T21:59:33.693Z,99.99
2022-09-03T22:00:33.722Z,99.99
2022-09-03T22:01:33.819Z,99.99
2022-09-03T22:02:33.832Z,99.99